Time;durP1;ratioP1;P1;durP2;ratioP2;P2;SDS_P1;SDS_P2;PMS_P1;PMS_P2;Temp;Humidity;BMP_temperature;BMP_pressure;BME280_temperature;BME280_humidity;BME280_pressure;Samples;Min_cycle;Max_cycle;Signal;HPM_P1;HPM_P2
2023/01/03 00:00:49;;;;;;;0.00;0.00;;;;;;;;;;5092437;28;20167;-80
2023/01/03 00:03:16;;;;;;;0.00;0.00;;;;;;;;;;5093966;28;20064;-81
2023/01/03 00:05:46;;;;;;;0.00;0.00;;;;;;;;;;5092219;28;20132;-81
2023/01/03 00:08:12;;;;;;;0.00;0.00;;;;;;;;;;5092556;28;20040;-81
2023/01/03 00:10:38;;;;;;;0.10;0.10;;;;;;;;;;5092466;28;20059;-81
2023/01/03 00:13:05;;;;;;;0.00;0.00;;;;;;;;;;5092696;28;20050;-81
2023/01/03 00:15:34;;;;;;;0.00;0.00;;;;;;;;;;5093539;28;20028;-81
2023/01/03 00:18:00;;;;;;;0.00;0.00;;;;;;;;;;5092513;28;20123;-81
2023/01/03 00:20:26;;;;;;;0.00;0.00;;;;;;;;;;5093710;28;20075;-81
2023/01/03 00:22:52;;;;;;;0.00;0.00;;;;;;;;;;5092327;28;20047;-81
2023/01/03 00:25:18;;;;;;;0.00;0.00;;;;;;;;;;5093269;28;20063;-81
2023/01/03 00:27:44;;;;;;;0.00;0.00;;;;;;;;;;5092197;28;20042;-81
2023/01/03 00:30:10;;;;;;;0.00;0.00;;;;;;;;;;5092190;28;20123;-81
2023/01/03 00:32:36;;;;;;;0.00;0.00;;;;;;;;;;5091790;28;20046;-81
2023/01/03 00:35:02;;;;;;;0.00;0.00;;;;;;;;;;5091807;28;20409;-81
2023/01/03 00:37:28;;;;;;;0.00;0.00;;;;;;;;;;5092267;28;20119;-81
2023/01/03 00:39:54;;;;;;;0.00;0.00;;;;;;;;;;5092189;28;20048;-81
2023/01/03 00:42:20;;;;;;;0.00;0.00;;;;;;;;;;5075268;28;20048;-81
2023/01/03 00:44:46;;;;;;;0.00;0.00;;;;;;;;;;5093119;28;20043;-81
2023/01/03 00:47:12;;;;;;;0.00;0.00;;;;;;;;;;5092966;28;20043;-81
2023/01/03 00:49:38;;;;;;;0.00;0.00;;;;;;;;;;5091952;28;20132;-81
2023/01/03 00:52:04;;;;;;;0.00;0.00;;;;;;;;;;5093092;28;20509;-81
2023/01/03 00:54:30;;;;;;;0.00;0.00;;;;;;;;;;5091815;28;20040;-81
2023/01/03 00:56:56;;;;;;;0.00;0.00;;;;;;;;;;5091575;28;20136;-81
2023/01/03 00:59:22;;;;;;;0.00;0.00;;;;;;;;;;5091760;28;20423;-81
2023/01/03 01:01:50;;;;;;;0.00;0.00;;;;;;;;;;5091686;28;20040;-81
2023/01/03 01:04:26;;;;;;;0.00;0.00;;;;;;;;;;5091068;28;20119;-81
2023/01/03 01:06:54;;;;;;;0.00;0.00;;;;;;;;;;5091709;28;20127;-81
2023/01/03 01:09:27;;;;;;;0.00;0.00;;;;;;;;;;5091568;28;20040;-80
2023/01/03 01:11:54;;;;;;;0.00;0.00;;;;;;;;;;5091396;28;20040;-81
2023/01/03 01:14:22;;;;;;;0.00;0.00;;;;;;;;;;5092489;28;20039;-81
2023/01/03 01:16:49;;;;;;;0.00;0.00;;;;;;;;;;5091293;28;20051;-81
2023/01/03 01:19:16;;;;;;;0.00;0.00;;;;;;;;;;5091423;28;20112;-81
2023/01/03 01:21:43;;;;;;;0.00;0.00;;;;;;;;;;5091190;28;20071;-81
2023/01/03 01:24:09;;;;;;;0.00;0.00;;;;;;;;;;5091701;28;20043;-81
2023/01/03 01:26:34;;;;;;;0.00;0.00;;;;;;;;;;5091222;28;20184;-81
2023/01/03 01:29:00;;;;;;;0.00;0.00;;;;;;;;;;5091329;28;20063;-81
2023/01/03 01:31:27;;;;;;;0.00;0.00;;;;;;;;;;5091262;28;20079;-81
2023/01/03 01:33:53;;;;;;;0.00;0.00;;;;;;;;;;5073979;28;20519;-81
2023/01/03 01:36:21;;;;;;;0.00;0.00;;;;;;;;;;5092431;28;20079;-81
2023/01/03 01:38:47;;;;;;;0.00;0.00;;;;;;;;;;5092441;28;20495;-81
2023/01/03 01:41:15;;;;;;;0.00;0.00;;;;;;;;;;5091081;28;20072;-81
2023/01/03 01:46:42;;;;;;;0.00;0.00;;;;;;;;;;5092504;28;20464;-81
2023/01/03 01:49:11;;;;;;;0.00;0.00;;;;;;;;;;5091290;28;20383;-81
2023/01/03 01:51:37;;;;;;;0.00;0.00;;;;;;;;;;5092120;28;20120;-81
2023/01/03 01:54:05;;;;;;;0.00;0.00;;;;;;;;;;5092026;28;20097;-81
2023/01/03 01:56:35;;;;;;;0.00;0.00;;;;;;;;;;5092173;28;20032;-81
2023/01/03 01:59:02;;;;;;;0.00;0.00;;;;;;;;;;5092240;28;20044;-81
2023/01/03 02:01:29;;;;;;;0.00;0.00;;;;;;;;;;5090843;28;20044;-81
2023/01/03 02:04:01;;;;;;;0.00;0.00;;;;;;;;;;5092137;28;20105;-81
2023/01/03 02:06:28;;;;;;;0.00;0.00;;;;;;;;;;5090519;28;20051;-81
2023/01/03 02:08:54;;;;;;;0.00;0.00;;;;;;;;;;5090703;28;20051;-81
2023/01/03 02:11:27;;;;;;;0.00;0.00;;;;;;;;;;5090670;28;20047;-81
2023/01/03 02:14:11;;;;;;;0.00;0.00;;;;;;;;;;5090744;28;20048;-82
2023/01/03 02:16:47;;;;;;;0.00;0.00;;;;;;;;;;5094554;28;20463;-81
2023/01/03 02:19:19;;;;;;;0.00;0.00;;;;;;;;;;5095868;28;20424;-81
2023/01/03 02:22:13;;;;;;;0.00;0.00;;;;;;;;;;5095846;28;20042;-81
2023/01/03 02:24:41;;;;;;;0.00;0.00;;;;;;;;;;5095955;28;20055;-82
2023/01/03 02:27:26;;;;;;;0.00;0.00;;;;;;;;;;5094283;28;20471;-81
2023/01/03 02:30:02;;;;;;;0.00;0.00;;;;;;;;;;5094385;28;20062;-82
2023/01/03 02:32:37;;;;;;;0.00;0.00;;;;;;;;;;5093889;28;20040;-81
2023/01/03 02:35:09;;;;;;;0.00;0.00;;;;;;;;;;5095518;28;20089;-81
2023/01/03 02:37:41;;;;;;;0.00;0.00;;;;;;;;;;5094078;28;20047;-81
2023/01/03 02:40:22;;;;;;;0.00;0.00;;;;;;;;;;5095708;28;20043;-81
2023/01/03 02:43:04;;;;;;;0.00;0.00;;;;;;;;;;5094260;28;20067;-81
2023/01/03 02:45:49;;;;;;;0.00;0.00;;;;;;;;;;5094610;28;20059;-81
2023/01/03 02:48:18;;;;;;;0.00;0.00;;;;;;;;;;5093852;28;20040;-81
2023/01/03 02:50:48;;;;;;;0.00;0.00;;;;;;;;;;5095465;28;20121;-81
2023/01/03 02:53:17;;;;;;;0.00;0.00;;;;;;;;;;5093772;28;20064;-81
2023/01/03 02:55:44;;;;;;;0.00;0.00;;;;;;;;;;5095175;28;20578;-81
2023/01/03 02:58:13;;;;;;;0.00;0.00;;;;;;;;;;5095119;28;20127;-81
2023/01/03 03:00:42;;;;;;;0.00;0.00;;;;;;;;;;5093944;28;20089;-81
2023/01/03 03:03:12;;;;;;;0.00;0.00;;;;;;;;;;5094970;28;20070;-81
2023/01/03 03:05:45;;;;;;;0.00;0.00;;;;;;;;;;5094029;28;20358;-81
2023/01/03 03:08:11;;;;;;;0.00;0.00;;;;;;;;;;5093620;28;20142;-80
2023/01/03 03:13:31;;;;;;;0.00;0.00;;;;;;;;;;5094600;28;20529;-81
2023/01/03 03:16:46;;;;;;;0.00;0.00;;;;;;;;;;5094928;28;20043;-81
2023/01/03 03:19:13;;;;;;;0.00;0.00;;;;;;;;;;5094765;28;20483;-81
2023/01/03 03:29:57;;;;;;;;;;;;;;;;;;5095318;28;20422;-81
2023/01/03 03:32:26;;;;;;;0.00;0.00;;;;;;;;;;5093089;28;19924;-80
2023/01/03 03:34:53;;;;;;;0.00;0.00;;;;;;;;;;5093106;28;20064;-81
2023/01/03 03:37:20;;;;;;;0.00;0.00;;;;;;;;;;5094242;28;20560;-82
2023/01/03 03:45:26;;;;;;;0.00;0.00;;;;;;;;;;5094453;28;20056;-81
2023/01/03 03:48:01;;;;;;;0.00;0.00;;;;;;;;;;5092870;28;20040;-80
2023/01/03 03:50:30;;;;;;;0.00;0.00;;;;;;;;;;5094268;28;20044;-81
2023/01/03 03:53:01;;;;;;;0.00;0.00;;;;;;;;;;5092660;28;20059;-81
2023/01/03 03:55:33;;;;;;;0.00;0.00;;;;;;;;;;5094273;28;20047;-81
2023/01/03 03:58:07;;;;;;;0.00;0.00;;;;;;;;;;5092853;28;20502;-82
2023/01/03 04:00:37;;;;;;;0.00;0.00;;;;;;;;;;5094264;28;20117;-81
2023/01/03 04:03:04;;;;;;;0.00;0.00;;;;;;;;;;5093885;28;20479;-82
2023/01/03 04:05:32;;;;;;;0.00;0.00;;;;;;;;;;5092694;28;20479;-81
2023/01/03 04:07:58;;;;;;;0.00;0.00;;;;;;;;;;5092448;28;20047;-81
2023/01/03 04:10:24;;;;;;;0.00;0.00;;;;;;;;;;5092768;28;20044;-81
2023/01/03 04:12:50;;;;;;;0.00;0.00;;;;;;;;;;5092657;28;20047;-82
2023/01/03 04:15:17;;;;;;;0.00;0.00;;;;;;;;;;5093833;28;20036;-81
2023/01/03 04:17:43;;;;;;;0.00;0.00;;;;;;;;;;5075640;28;20544;-81
2023/01/03 04:20:10;;;;;;;0.00;0.00;;;;;;;;;;5093954;28;20078;-81
2023/01/03 04:22:36;;;;;;;0.00;0.00;;;;;;;;;;5092560;28;20079;-81
2023/01/03 04:25:02;;;;;;;0.00;0.00;;;;;;;;;;5092712;28;20028;-81
2023/01/03 04:27:28;;;;;;;0.00;0.00;;;;;;;;;;5092229;28;20605;-81
2023/01/03 04:29:54;;;;;;;0.00;0.00;;;;;;;;;;5092995;28;20395;-81
2023/01/03 04:32:20;;;;;;;0.00;0.00;;;;;;;;;;5092281;28;20055;-81
2023/01/03 04:34:46;;;;;;;0.00;0.00;;;;;;;;;;5075575;28;20482;-82
2023/01/03 04:37:12;;;;;;;0.10;0.08;;;;;;;;;;5094009;28;20040;-81
2023/01/03 04:39:38;;;;;;;0.10;0.05;;;;;;;;;;5091270;28;20115;-81
2023/01/03 04:44:49;;;;;;;0.00;0.00;;;;;;;;;;5093159;28;20048;-81
2023/01/03 04:47:15;;;;;;;0.00;0.00;;;;;;;;;;5093454;28;20039;-81
2023/01/03 04:49:45;;;;;;;0.00;0.00;;;;;;;;;;5093036;28;20089;-81
2023/01/03 04:52:11;;;;;;;0.00;0.00;;;;;;;;;;5091855;28;20051;-81
2023/01/03 04:54:38;;;;;;;0.00;0.00;;;;;;;;;;5091697;28;20047;-81
2023/01/03 04:57:05;;;;;;;0.00;0.00;;;;;;;;;;5092025;28;20436;-81
2023/01/03 04:59:31;;;;;;;0.00;0.00;;;;;;;;;;5092837;28;20040;-81
2023/01/03 05:01:57;;;;;;;0.00;0.00;;;;;;;;;;5093322;28;20036;-81
2023/01/03 05:04:22;;;;;;;0.00;0.00;;;;;;;;;;5091499;28;20485;-81
2023/01/03 05:06:48;;;;;;;0.00;0.00;;;;;;;;;;5091741;28;20119;-82
2023/01/03 05:09:14;;;;;;;0.00;0.00;;;;;;;;;;5091472;28;20376;-81
2023/01/03 05:11:40;;;;;;;0.00;0.00;;;;;;;;;;5091573;28;20048;-81
2023/01/03 05:14:06;;;;;;;0.00;0.00;;;;;;;;;;5091149;28;20044;-81
2023/01/03 05:16:32;;;;;;;0.00;0.00;;;;;;;;;;5091788;28;20126;-81
2023/01/03 05:18:58;;;;;;;0.00;0.00;;;;;;;;;;5092647;28;20490;-82
2023/01/03 05:26:55;;;;;;;0.00;0.00;;;;;;;;;;5092930;28;20063;-81
2023/01/03 05:29:22;;;;;;;0.00;0.00;;;;;;;;;;5091068;28;20475;-81
2023/01/03 05:31:48;;;;;;;0.00;0.00;;;;;;;;;;5091214;28;20051;-81
2023/01/03 05:34:14;;;;;;;0.00;0.00;;;;;;;;;;5091950;28;20052;-81
2023/01/03 05:36:41;;;;;;;0.00;0.00;;;;;;;;;;5091154;28;20040;-82
2023/01/03 05:39:07;;;;;;;0.45;0.22;;;;;;;;;;5091090;28;20044;-82
2023/01/03 05:44:18;;;;;;;0.00;0.00;;;;;;;;;;5092098;28;20487;-81
2023/01/03 05:46:44;;;;;;;0.00;0.00;;;;;;;;;;5091347;28;20048;-81
2023/01/03 05:49:10;;;;;;;0.00;0.00;;;;;;;;;;5092485;28;20472;-82
2023/01/03 05:51:36;;;;;;;0.15;0.10;;;;;;;;;;5095568;28;20043;-81
2023/01/03 05:54:02;;;;;;;0.00;0.00;;;;;;;;;;5077977;28;20044;-81
2023/01/03 05:56:30;;;;;;;0.00;0.00;;;;;;;;;;5096627;28;20039;-81
2023/01/03 05:58:56;;;;;;;0.00;0.00;;;;;;;;;;5096439;28;20040;-81
2023/01/03 06:01:25;;;;;;;0.00;0.00;;;;;;;;;;5096489;28;20126;-81
2023/01/03 06:03:51;;;;;;;0.00;0.00;;;;;;;;;;5096011;28;20048;-81
2023/01/03 06:06:18;;;;;;;0.00;0.00;;;;;;;;;;5096515;28;20368;-81
2023/01/03 06:08:44;;;;;;;0.00;0.00;;;;;;;;;;5094868;28;20047;-81
2023/01/03 06:11:11;;;;;;;0.00;0.00;;;;;;;;;;5095214;28;20068;-81
2023/01/03 06:13:37;;;;;;;0.00;0.00;;;;;;;;;;5094761;28;20454;-81
2023/01/03 06:18:52;;;;;;;0.00;0.00;;;;;;;;;;5096056;28;20071;-81
2023/01/03 06:21:18;;;;;;;0.00;0.00;;;;;;;;;;5096201;28;20064;-81
2023/01/03 06:23:46;;;;;;;0.00;0.00;;;;;;;;;;5094248;28;20109;-82
2023/01/03 06:26:12;;;;;;;0.00;0.00;;;;;;;;;;5077894;28;20397;-81
2023/01/03 06:28:38;;;;;;;0.00;0.00;;;;;;;;;;5094406;28;20035;-81
2023/01/03 06:31:04;;;;;;;0.00;0.00;;;;;;;;;;5094474;28;20375;-81
2023/01/03 06:33:31;;;;;;;0.00;0.00;;;;;;;;;;5094178;28;20442;-81
2023/01/03 06:35:57;;;;;;;0.00;0.00;;;;;;;;;;5094443;28;20048;-80
2023/01/03 06:38:22;;;;;;;0.00;0.00;;;;;;;;;;5095786;28;20264;-81
2023/01/03 06:40:49;;;;;;;0.00;0.00;;;;;;;;;;5094209;28;20391;-81
2023/01/03 06:43:14;;;;;;;0.00;0.00;;;;;;;;;;5094471;28;20040;-81
2023/01/03 06:54:00;;;;;;;;;;;;;;;;;;5095365;28;20040;-81
2023/01/03 06:56:26;;;;;;;0.00;0.00;;;;;;;;;;5095437;28;20470;-81
2023/01/03 06:58:52;;;;;;;0.00;0.00;;;;;;;;;;5094023;28;20076;-81
2023/01/03 07:01:19;;;;;;;0.00;0.00;;;;;;;;;;5093054;28;20036;-81
2023/01/03 07:03:45;;;;;;;0.00;0.00;;;;;;;;;;5093760;28;20502;-81
2023/01/03 07:06:11;;;;;;;0.00;0.00;;;;;;;;;;5095074;28;20044;-81
2023/01/03 07:08:37;;;;;;;0.00;0.00;;;;;;;;;;5093556;28;20321;-81
2023/01/03 07:11:03;;;;;;;0.00;0.00;;;;;;;;;;5093697;28;20048;-81
2023/01/03 07:16:14;;;;;;;0.00;0.00;;;;;;;;;;5093482;28;20048;-81
2023/01/03 07:18:40;;;;;;;0.43;0.28;;;;;;;;;;5093587;28;20040;-82
2023/01/03 07:21:07;;;;;;;0.00;0.00;;;;;;;;;;5093077;28;20040;-81
2023/01/03 07:23:33;;;;;;;0.00;0.00;;;;;;;;;;5093505;28;20040;-81
2023/01/03 07:25:59;;;;;;;0.00;0.00;;;;;;;;;;5093188;28;20545;-81
2023/01/03 07:28:25;;;;;;;0.38;0.38;;;;;;;;;;5093389;28;20475;-81
2023/01/03 07:30:51;;;;;;;0.00;0.00;;;;;;;;;;5093215;28;20047;-81
2023/01/03 07:33:17;;;;;;;0.00;0.00;;;;;;;;;;5094102;28;20044;-82
2023/01/03 07:35:43;;;;;;;0.22;0.22;;;;;;;;;;5092865;28;20056;-81
2023/01/03 07:38:10;;;;;;;0.10;0.10;;;;;;;;;;5094690;28;20032;-81
2023/01/03 07:40:36;;;;;;;0.10;0.08;;;;;;;;;;5094219;28;20104;-81
2023/01/03 07:45:47;;;;;;;0.70;0.15;;;;;;;;;;5094016;28;20047;-82
2023/01/03 07:48:14;;;;;;;0.05;0.05;;;;;;;;;;5094150;28;20047;-82
2023/01/03 07:50:40;;;;;;;0.00;0.00;;;;;;;;;;5092694;28;20079;-82
2023/01/03 07:53:07;;;;;;;0.00;0.00;;;;;;;;;;5093076;28;20036;-81
2023/01/03 07:55:33;;;;;;;0.00;0.00;;;;;;;;;;5059026;28;20097;-80
2023/01/03 07:58:00;;;;;;;0.00;0.00;;;;;;;;;;5094133;28;20036;-82
2023/01/03 08:00:26;;;;;;;0.00;0.00;;;;;;;;;;5092332;28;20036;-81
2023/01/03 08:02:55;;;;;;;0.00;0.00;;;;;;;;;;5092861;28;20067;-81
2023/01/03 08:05:22;;;;;;;0.32;0.20;;;;;;;;;;5092420;28;20048;-81
2023/01/03 08:07:48;;;;;;;0.00;0.00;;;;;;;;;;5092661;28;20044;-81
2023/01/03 08:13:18;;;;;;;0.00;0.00;;;;;;;;;;5092803;28;20353;-81
2023/01/03 08:15:49;;;;;;;0.25;0.00;;;;;;;;;;5093709;28;20335;-82
2023/01/03 08:18:15;;;;;;;0.00;0.00;;;;;;;;;;5093927;28;20094;-81
2023/01/03 08:20:42;;;;;;;0.00;0.00;;;;;;;;;;5093434;28;20355;-83
2023/01/03 08:23:08;;;;;;;0.00;0.00;;;;;;;;;;5092419;28;20048;-82
2023/01/03 08:25:34;;;;;;;0.20;0.00;;;;;;;;;;5075387;28;20516;-81
2023/01/03 08:28:00;;;;;;;0.22;0.00;;;;;;;;;;5075283;28;20612;-81
2023/01/03 08:30:27;;;;;;;0.00;0.00;;;;;;;;;;5092152;28;20127;-81
2023/01/03 08:32:54;;;;;;;0.00;0.00;;;;;;;;;;5091985;28;20144;-81
2023/01/03 08:35:21;;;;;;;0.00;0.00;;;;;;;;;;5091791;28;20415;-84
2023/01/03 08:37:47;;;;;;;0.00;0.00;;;;;;;;;;5092456;28;20534;-82
2023/01/03 08:40:15;;;;;;;0.00;0.00;;;;;;;;;;5091657;28;20044;-82
2023/01/03 08:42:41;;;;;;;0.00;0.00;;;;;;;;;;5075025;28;20089;-83
2023/01/03 08:45:10;;;;;;;0.00;0.00;;;;;;;;;;5092902;28;20479;-82
2023/01/03 08:47:36;;;;;;;0.00;0.00;;;;;;;;;;5091874;28;20471;-82
2023/01/03 08:50:03;;;;;;;0.00;0.00;;;;;;;;;;5093063;28;20039;-82
2023/01/03 08:52:29;;;;;;;0.00;0.00;;;;;;;;;;5091952;28;20052;-82
2023/01/03 08:54:55;;;;;;;0.00;0.00;;;;;;;;;;5091431;28;20490;-83
2023/01/03 08:57:21;;;;;;;0.00;0.00;;;;;;;;;;5091706;28;20047;-82
2023/01/03 08:59:47;;;;;;;0.00;0.00;;;;;;;;;;5091701;28;20043;-81
2023/01/03 09:02:13;;;;;;;0.00;0.00;;;;;;;;;;5091499;28;20039;-82
2023/01/03 09:04:39;;;;;;;0.00;0.00;;;;;;;;;;5091651;28;20047;-83
2023/01/03 09:07:05;;;;;;;0.00;0.00;;;;;;;;;;5092787;28;20036;-85
2023/01/03 09:09:31;;;;;;;0.10;0.00;;;;;;;;;;5091617;28;20069;-83
2023/01/03 09:11:57;;;;;;;0.00;0.00;;;;;;;;;;5091219;28;20360;-83
2023/01/03 09:14:23;;;;;;;0.00;0.00;;;;;;;;;;5091428;28;20093;-81
2023/01/03 09:16:49;;;;;;;0.00;0.00;;;;;;;;;;5091438;28;20081;-82
2023/01/03 09:19:15;;;;;;;0.00;0.00;;;;;;;;;;5093043;28;20421;-82
2023/01/03 09:21:41;;;;;;;0.00;0.00;;;;;;;;;;5092339;28;20032;-83
2023/01/03 09:24:08;;;;;;;0.00;0.00;;;;;;;;;;5074100;28;20481;-81
2023/01/03 09:26:34;;;;;;;0.00;0.00;;;;;;;;;;5091327;28;20124;-82
2023/01/03 09:29:00;;;;;;;0.00;0.00;;;;;;;;;;5091660;28;20109;-82
2023/01/03 09:31:28;;;;;;;0.00;0.00;;;;;;;;;;5092471;28;20070;-82
2023/01/03 09:33:54;;;;;;;0.00;0.00;;;;;;;;;;5092191;28;20048;-82
2023/01/03 09:36:21;;;;;;;0.00;0.00;;;;;;;;;;5090920;28;20043;-83
2023/01/03 09:38:47;;;;;;;0.22;0.10;;;;;;;;;;5074270;28;20131;-82
2023/01/03 09:41:24;;;;;;;0.00;0.00;;;;;;;;;;5091157;28;20040;-82
2023/01/03 09:43:51;;;;;;;0.00;0.00;;;;;;;;;;5091264;28;20039;-82
2023/01/03 09:46:19;;;;;;;0.00;0.00;;;;;;;;;;5092125;28;20039;-82
2023/01/03 09:48:47;;;;;;;0.00;0.00;;;;;;;;;;5091277;28;20047;-81
2023/01/03 10:05:59;;;;;;;0.00;0.00;;;;;;;;;;5062898;28;20087;-82
2023/01/03 10:08:36;;;;;;;0.00;0.00;;;;;;;;;;5090890;28;20047;-81
2023/01/03 10:11:05;;;;;;;0.00;0.00;;;;;;;;;;5091985;28;20047;-82
2023/01/03 10:13:38;;;;;;;0.00;0.00;;;;;;;;;;5092183;28;20040;-82
2023/01/03 10:16:15;;;;;;;0.00;0.00;;;;;;;;;;5091020;28;20051;-82
2023/01/03 10:18:48;;;;;;;0.00;0.00;;;;;;;;;;5092289;28;20119;-82
2023/01/03 10:21:22;;;;;;;0.00;0.00;;;;;;;;;;5090537;28;20424;-83
2023/01/03 10:23:49;;;;;;;0.00;0.00;;;;;;;;;;5074199;28;20494;-82
2023/01/03 10:26:15;;;;;;;0.00;0.00;;;;;;;;;;5090422;28;20044;-82
2023/01/03 10:28:43;;;;;;;0.00;0.00;;;;;;;;;;5091911;28;20040;-82
2023/01/03 10:31:09;;;;;;;0.00;0.00;;;;;;;;;;5090553;28;20082;-82
2023/01/03 10:33:38;;;;;;;0.00;0.00;;;;;;;;;;5092160;28;20059;-82
2023/01/03 10:36:05;;;;;;;0.00;0.00;;;;;;;;;;5091423;28;20040;-82
2023/01/03 10:38:31;;;;;;;0.43;0.30;;;;;;;;;;5077995;28;20126;-83
2023/01/03 10:40:58;;;;;;;0.00;0.00;;;;;;;;;;5095018;28;20456;-82
2023/01/03 10:43:42;;;;;;;0.00;0.00;;;;;;;;;;5094237;28;20044;-82
2023/01/03 10:46:21;;;;;;;0.00;0.00;;;;;;;;;;5094133;28;20047;-83
2023/01/03 10:48:48;;;;;;;4.38;0.25;;;;;;;;;;5094225;28;20048;-82
2023/01/03 10:51:23;;;;;;;0.00;0.00;;;;;;;;;;5093798;28;20055;-81
2023/01/03 10:53:51;;;;;;;0.00;0.00;;;;;;;;;;5095621;28;20036;-81
2023/01/03 10:56:17;;;;;;;0.00;0.00;;;;;;;;;;5077328;28;20069;-81
2023/01/03 10:58:43;;;;;;;0.00;0.00;;;;;;;;;;5094122;28;20098;-81
2023/01/03 11:01:20;;;;;;;0.65;0.10;;;;;;;;;;5094023;28;20054;-80
2023/01/03 11:04:05;;;;;;;0.00;0.00;;;;;;;;;;5093678;28;20056;-82
2023/01/03 11:06:32;;;;;;;0.00;0.00;;;;;;;;;;5094998;28;20043;-82
2023/01/03 11:09:00;;;;;;;0.00;0.00;;;;;;;;;;5094254;28;20180;-82
2023/01/03 11:11:36;;;;;;;0.00;0.00;;;;;;;;;;5095027;28;20560;-82
2023/01/03 11:14:21;;;;;;;0.00;0.00;;;;;;;;;;5093554;28;20391;-81
2023/01/03 11:16:52;;;;;;;0.00;0.00;;;;;;;;;;5095032;28;20043;-82
2023/01/03 11:19:18;;;;;;;0.32;0.17;;;;;;;;;;5095184;28;20431;-81
2023/01/03 11:21:44;;;;;;;0.00;0.00;;;;;;;;;;5093252;28;20040;-81
2023/01/03 11:24:29;;;;;;;0.00;0.00;;;;;;;;;;5093608;28;20036;-81
2023/01/03 11:27:14;;;;;;;0.22;0.13;;;;;;;;;;5093353;28;20043;-81
2023/01/03 11:29:55;;;;;;;0.00;0.00;;;;;;;;;;5094969;28;20123;-82
2023/01/03 11:32:24;;;;;;;0.00;0.00;;;;;;;;;;5093264;28;20100;-82
2023/01/03 11:35:05;;;;;;;0.32;0.32;;;;;;;;;;5094460;28;20102;-82
2023/01/03 11:37:41;;;;;;;0.00;0.00;;;;;;;;;;5094438;28;20032;-81
2023/01/03 11:40:13;;;;;;;0.00;0.00;;;;;;;;;;5093613;28;20071;-82
2023/01/03 11:42:38;;;;;;;0.10;0.10;;;;;;;;;;5094602;28;20036;-82
2023/01/03 11:45:19;;;;;;;0.00;0.00;;;;;;;;;;5093035;28;20505;-82
2023/01/03 11:48:05;;;;;;;0.00;0.00;;;;;;;;;;5093886;28;20035;-82
2023/01/03 11:50:34;;;;;;;0.00;0.00;;;;;;;;;;5093013;28;20079;-82
2023/01/03 11:53:00;;;;;;;0.00;0.00;;;;;;;;;;5093096;28;20044;-81
2023/01/03 11:55:45;;;;;;;0.43;0.43;;;;;;;;;;5092833;28;20042;-81
2023/01/03 11:58:29;;;;;;;0.00;0.00;;;;;;;;;;5075832;28;20032;-81
2023/01/03 12:00:57;;;;;;;0.00;0.00;;;;;;;;;;5092897;28;20078;-82
2023/01/03 12:03:23;;;;;;;0.10;0.05;;;;;;;;;;5092759;28;20048;-82
2023/01/03 12:06:05;;;;;;;0.00;0.00;;;;;;;;;;5092600;28;20050;-83
2023/01/03 12:08:39;;;;;;;0.35;0.17;;;;;;;;;;5075792;28;20051;-82
2023/01/03 12:11:24;;;;;;;0.00;0.00;;;;;;;;;;5092803;28;20036;-82
2023/01/03 12:13:50;;;;;;;0.30;0.20;;;;;;;;;;5092280;28;20123;-81
2023/01/03 12:16:22;;;;;;;0.43;0.35;;;;;;;;;;5075873;28;20079;-82
2023/01/03 12:19:06;;;;;;;0.10;0.10;;;;;;;;;;5075631;28;20038;-82
2023/01/03 12:21:42;;;;;;;0.00;0.00;;;;;;;;;;5092328;28;20397;-81
2023/01/03 12:24:15;;;;;;;0.00;0.00;;;;;;;;;;5093334;28;20040;-81
2023/01/03 12:26:42;;;;;;;0.00;0.00;;;;;;;;;;5092346;28;20172;-82
2023/01/03 12:29:24;;;;;;;0.05;0.05;;;;;;;;;;5092166;28;20100;-81
2023/01/03 12:31:53;;;;;;;0.00;0.00;;;;;;;;;;5092461;28;20483;-82
2023/01/03 12:34:29;;;;;;;0.10;0.03;;;;;;;;;;5091696;28;20442;-82
2023/01/03 12:37:11;;;;;;;0.00;0.00;;;;;;;;;;5092453;28;20043;-81
2023/01/03 12:39:37;;;;;;;0.00;0.00;;;;;;;;;;5092261;28;20067;-82
2023/01/03 12:42:15;;;;;;;0.00;0.00;;;;;;;;;;5092037;28;20415;-81
2023/01/03 12:44:43;;;;;;;0.38;0.10;;;;;;;;;;5091733;28;20044;-81
2023/01/03 12:47:29;;;;;;;0.00;0.00;;;;;;;;;;5091915;28;20047;-81
2023/01/03 12:50:13;;;;;;;0.00;0.00;;;;;;;;;;5091802;28;20080;-81
2023/01/03 12:52:40;;;;;;;0.00;0.00;;;;;;;;;;5091877;28;20051;-81
2023/01/03 12:55:18;;;;;;;0.00;0.00;;;;;;;;;;5091555;28;20204;-82
2023/01/03 12:57:54;;;;;;;0.00;0.00;;;;;;;;;;5091470;28;20078;-82
2023/01/03 13:00:33;;;;;;;0.00;0.00;;;;;;;;;;5091177;28;20086;-81
2023/01/03 13:03:02;;;;;;;0.20;0.10;;;;;;;;;;5092685;28;20079;-82
2023/01/03 13:05:42;;;;;;;0.00;0.00;;;;;;;;;;5107836;27;20119;-82
2023/01/03 13:08:15;;;;;;;0.00;0.00;;;;;;;;;;5111152;28;20039;-82
2023/01/03 13:10:46;;;;;;;0.10;0.00;;;;;;;;;;5113311;28;20085;-82
2023/01/03 13:13:16;;;;;;;0.00;0.00;;;;;;;;;;5105714;28;20076;-82
2023/01/03 13:15:42;;;;;;;0.00;0.00;;;;;;;;;;5111538;28;20038;-82
2023/01/03 13:18:20;;;;;;;0.00;0.00;;;;;;;;;;5112726;28;20479;-82
2023/01/03 13:20:47;;;;;;;0.00;0.00;;;;;;;;;;5111474;28;20057;-82
2023/01/03 13:23:13;;;;;;;0.00;0.00;;;;;;;;;;5111622;28;20093;-82
2023/01/03 13:25:41;;;;;;;0.10;0.10;;;;;;;;;;5094343;28;20043;-82
2023/01/03 13:28:30;;;;;;;0.00;0.00;;;;;;;;;;5112857;28;20035;-81
2023/01/03 13:31:25;;;;;;;0.00;0.00;;;;;;;;;;5103744;28;20047;-82
2023/01/03 13:33:55;;;;;;;0.00;0.00;;;;;;;;;;5112007;28;20048;-82
2023/01/03 13:36:22;;;;;;;0.00;0.00;;;;;;;;;;5112664;28;20501;-81
2023/01/03 13:38:48;;;;;;;0.00;0.00;;;;;;;;;;5111344;28;20124;-82
2023/01/03 13:41:26;;;;;;;0.00;0.00;;;;;;;;;;5111271;28;20119;-82
2023/01/03 13:43:53;;;;;;;0.00;0.00;;;;;;;;;;5110986;28;20054;-82
2023/01/03 13:46:23;;;;;;;0.25;0.20;;;;;;;;;;5112420;28;20039;-81
2023/01/03 13:49:06;;;;;;;0.00;0.00;;;;;;;;;;5094440;28;20059;-82
2023/01/03 13:51:38;;;;;;;0.00;0.00;;;;;;;;;;5111427;28;20218;-81
2023/01/03 13:54:10;;;;;;;1.25;0.32;;;;;;;;;;5110952;28;20040;-81
2023/01/03 13:56:42;;;;;;;0.10;0.05;;;;;;;;;;5112570;28;20042;-82
2023/01/03 13:59:16;;;;;;;0.00;0.00;;;;;;;;;;5112185;28;20042;-81
2023/01/03 14:02:00;;;;;;;0.00;0.00;;;;;;;;;;5111066;28;20040;-81
2023/01/03 14:04:33;;;;;;;0.00;0.00;;;;;;;;;;5111245;28;20102;-81
2023/01/03 14:07:05;;;;;;;0.00;0.00;;;;;;;;;;5111278;28;20363;-81
2023/01/03 14:09:31;;;;;;;0.00;0.00;;;;;;;;;;5110869;28;20043;-82
2023/01/03 14:12:06;;;;;;;0.00;0.00;;;;;;;;;;5114613;28;20100;-81
2023/01/03 14:14:35;;;;;;;0.00;0.00;;;;;;;;;;5114986;28;20075;-81
2023/01/03 14:17:02;;;;;;;0.00;0.00;;;;;;;;;;5116435;28;20043;-81
2023/01/03 14:19:31;;;;;;;0.00;0.00;;;;;;;;;;5114744;28;20036;-81
2023/01/03 14:21:59;;;;;;;0.00;0.00;;;;;;;;;;5116386;28;20045;-81
2023/01/03 14:24:30;;;;;;;0.00;0.00;;;;;;;;;;5114884;27;20118;-82
2023/01/03 14:27:03;;;;;;;0.00;0.00;;;;;;;;;;5093244;28;20040;-81
2023/01/03 14:29:29;;;;;;;0.00;0.00;;;;;;;;;;5094290;28;20092;-81
2023/01/03 14:31:55;;;;;;;0.00;0.00;;;;;;;;;;5095402;28;20176;-81
2023/01/03 14:34:27;;;;;;;0.00;0.00;;;;;;;;;;5108803;28;20080;-81
2023/01/03 14:36:59;;;;;;;0.00;0.00;;;;;;;;;;5094248;28;20036;-81
2023/01/03 14:39:31;;;;;;;0.00;0.00;;;;;;;;;;5094428;28;20040;-82
2023/01/03 14:41:58;;;;;;;0.17;0.00;;;;;;;;;;5077309;28;20055;-81
2023/01/03 14:44:24;;;;;;;0.00;0.00;;;;;;;;;;5094361;28;20044;-82
2023/01/03 14:46:54;;;;;;;0.00;0.00;;;;;;;;;;5094347;28;20058;-81
2023/01/03 14:49:22;;;;;;;0.00;0.00;;;;;;;;;;5094173;28;20117;-81
2023/01/03 14:51:49;;;;;;;0.00;0.00;;;;;;;;;;5112720;28;20100;-82
2023/01/03 14:54:17;;;;;;;0.00;0.00;;;;;;;;;;5110570;28;20110;-82
2023/01/03 14:56:46;;;;;;;0.00;0.00;;;;;;;;;;5090959;28;20075;-82
2023/01/03 14:59:14;;;;;;;0.00;0.00;;;;;;;;;;5114222;28;20032;-81
2023/01/03 15:01:41;;;;;;;0.05;0.05;;;;;;;;;;5119546;27;20118;-82
2023/01/03 15:04:09;;;;;;;0.43;0.10;;;;;;;;;;5115308;27;20044;-82
2023/01/03 15:06:35;;;;;;;0.00;0.00;;;;;;;;;;5115413;28;20059;-81
2023/01/03 15:09:12;;;;;;;0.00;0.00;;;;;;;;;;5114136;28;20215;-82
2023/01/03 15:12:00;;;;;;;0.00;0.00;;;;;;;;;;5114312;28;20066;-82
2023/01/03 15:14:28;;;;;;;0.00;0.00;;;;;;;;;;5115189;28;20036;-82
2023/01/03 15:17:24;;;;;;;0.00;0.00;;;;;;;;;;5114235;28;20483;-82
2023/01/03 15:19:54;;;;;;;0.00;0.00;;;;;;;;;;5100898;28;20048;-82
2023/01/03 15:22:21;;;;;;;0.00;0.00;;;;;;;;;;5113516;28;20036;-81
2023/01/03 15:24:48;;;;;;;0.00;0.00;;;;;;;;;;5113682;28;20047;-82
2023/01/03 15:27:33;;;;;;;0.00;0.00;;;;;;;;;;5115286;28;20047;-82
2023/01/03 15:30:29;;;;;;;0.00;0.00;;;;;;;;;;5113572;28;20044;-82
2023/01/03 15:33:00;;;;;;;0.00;0.00;;;;;;;;;;5097074;28;20055;-83
2023/01/03 15:35:29;;;;;;;0.43;0.00;;;;;;;;;;5113329;28;20060;-81
2023/01/03 15:37:55;;;;;;;0.38;0.10;;;;;;;;;;5113896;28;20043;-82
2023/01/03 15:40:22;;;;;;;0.00;0.00;;;;;;;;;;5113377;28;20032;-82
2023/01/03 15:45:39;;;;;;;0.00;0.00;;;;;;;;;;5115085;28;20085;-82
2023/01/03 15:48:13;;;;;;;0.00;0.00;;;;;;;;;;5113842;28;20036;-81
2023/01/03 15:50:41;;;;;;;0.00;0.00;;;;;;;;;;5114657;28;20039;-82
2023/01/03 15:53:12;;;;;;;0.00;0.00;;;;;;;;;;5113650;28;20051;-81
2023/01/03 15:55:38;;;;;;;0.00;0.00;;;;;;;;;;5112963;28;20036;-82
2023/01/03 15:58:04;;;;;;;0.00;0.00;;;;;;;;;;5114806;28;20039;-82
2023/01/03 16:00:31;;;;;;;0.28;0.05;;;;;;;;;;5113414;28;20044;-81
2023/01/03 16:02:57;;;;;;;0.00;0.00;;;;;;;;;;5114766;28;20072;-82
2023/01/03 16:05:23;;;;;;;0.00;0.00;;;;;;;;;;5114198;28;20118;-82